Time;durP1;ratioP1;P1;durP2;ratioP2;P2;SDS_P1;SDS_P2;PMS_P1;PMS_P2;Temp;Humidity;BMP_temperature;BMP_pressure;BME280_temperature;BME280_humidity;BME280_pressure;Samples;Min_cycle;Max_cycle;Signal;HPM_P1;HPM_P2
2022/04/30 00:00:00;;;;;;;;;;;7.50;99.90;;;;;;5076611;28;19909;-70
2022/04/30 00:02:26;;;;;;;;;;;7.60;99.90;;;;;;5077642;28;19990;-70
2022/04/30 00:04:52;;;;;;;;;;;7.60;99.90;;;;;;5073304;28;19928;-71
2022/04/30 00:07:19;;;;;;;;;;;7.70;99.90;;;;;;5077198;28;19923;-70
2022/04/30 00:09:45;;;;;;;;;;;7.60;99.90;;;;;;5075929;28;19920;-70
2022/04/30 00:12:11;;;;;;;;;;;7.60;99.90;;;;;;5077290;28;19924;-70
2022/04/30 00:14:37;;;;;;;;;;;7.50;99.90;;;;;;5075073;28;19913;-70
2022/04/30 00:17:03;;;;;;;;;;;7.60;99.90;;;;;;5065297;28;19917;-70
2022/04/30 00:19:29;;;;;;;;;;;7.60;99.90;;;;;;5073315;28;19913;-70
2022/04/30 00:21:55;;;;;;;;;;;7.70;99.90;;;;;;5076047;28;20303;-72
2022/04/30 00:24:20;;;;;;;;;;;7.70;99.90;;;;;;5075389;28;19931;-70
2022/04/30 00:26:46;;;;;;;;;;;7.70;99.90;;;;;;5072603;28;19913;-70
2022/04/30 00:29:12;;;;;;;;;;;7.70;99.90;;;;;;5076268;28;19912;-71
2022/04/30 00:31:38;;;;;;;;;;;7.70;99.90;;;;;;5074891;28;19919;-71
2022/04/30 00:34:04;;;;;;;;;;;7.70;99.90;;;;;;5075614;28;19919;-70
2022/04/30 00:36:30;;;;;;;;;;;7.60;99.90;;;;;;5071509;28;19916;-70
2022/04/30 00:38:55;;;;;;;;;;;7.60;99.90;;;;;;5075486;28;19965;-71
2022/04/30 00:41:23;;;;;;;;;;;7.60;99.90;;;;;;5076809;28;20195;-71
2022/04/30 00:43:50;;;;;;;;;;;7.60;99.90;;;;;;5076964;28;20023;-70
2022/04/30 00:46:17;;;;;;;;;;;7.50;99.90;;;;;;5074129;28;19943;-71
2022/04/30 00:48:43;;;;;;;;;;;7.40;99.90;;;;;;5077043;28;19913;-71
2022/04/30 00:51:09;;;;;;;;;;;7.50;99.90;;;;;;5075120;28;19924;-71
2022/04/30 00:53:36;;;;;;;;;;;7.50;99.90;;;;;;5074430;28;19923;-70
2022/04/30 00:56:02;;;;;;;;;;;7.50;99.90;;;;;;5071823;28;19913;-71
2022/04/30 00:58:29;;;;;;;;;;;7.50;99.90;;;;;;5065609;28;19970;-70
2022/04/30 01:00:55;;;;;;;;;;;7.40;99.90;;;;;;5067518;28;20223;-70
2022/04/30 01:03:22;;;;;;;;;;;7.30;99.90;;;;;;5074357;28;19917;-72
2022/04/30 01:05:49;;;;;;;;;;;7.20;99.90;;;;;;5074747;28;19921;-70
2022/04/30 01:08:15;;;;;;;;;;;7.10;99.90;;;;;;5060176;28;20295;-72
2022/04/30 01:10:40;;;;;;;;;;;7.00;99.90;;;;;;5066191;28;20004;-71
2022/04/30 01:13:07;;;;;;;;;;;6.90;99.90;;;;;;5069863;28;20007;-71
2022/04/30 01:15:33;;;;;;;;;;;6.90;99.90;;;;;;5074972;28;19948;-70
2022/04/30 01:17:59;;;;;;;;;;;6.90;99.90;;;;;;5062966;28;19912;-71
2022/04/30 01:20:25;;;;;;;;;;;7.00;99.90;;;;;;5065760;28;20227;-70
2022/04/30 01:22:51;;;;;;;;;;;7.00;99.90;;;;;;5065897;28;19920;-70
2022/04/30 01:25:17;;;;;;;;;;;7.00;99.90;;;;;;5070017;28;19913;-73
2022/04/30 01:27:42;;;;;;;;;;;6.90;99.90;;;;;;5074703;28;20015;-70
2022/04/30 01:30:08;;;;;;;;;;;6.90;99.90;;;;;;5075542;28;20011;-70
2022/04/30 01:38:04;;;;;;;;;;;6.70;99.90;;;;;;5059271;28;19923;-70
2022/04/30 01:40:30;;;;;;;;;;;6.80;99.90;;;;;;5075858;28;19913;-70
2022/04/30 01:42:59;;;;;;;;;;;6.80;99.90;;;;;;5073476;28;19913;-73
2022/04/30 01:45:25;;;;;;;;;;;6.80;99.90;;;;;;5072988;28;19917;-70
2022/04/30 01:47:50;;;;;;;;;;;6.90;99.90;;;;;;5074457;28;19919;-70
2022/04/30 01:50:16;;;;;;;;;;;6.90;99.90;;;;;;5074610;28;19945;-70
2022/04/30 01:52:42;;;;;;;;;;;6.90;99.90;;;;;;5075432;28;20364;-70
2022/04/30 01:55:08;;;;;;;;;;;6.90;99.90;;;;;;5072591;28;19984;-70
2022/04/30 01:57:34;;;;;;;;;;;6.90;99.90;;;;;;5074520;28;19917;-73
2022/04/30 02:00:00;;;;;;;;;;;6.70;99.90;;;;;;5075365;28;20311;-70
2022/04/30 02:02:35;;;;;;;;;;;6.60;99.90;;;;;;5072239;28;19952;-69
2022/04/30 02:05:01;;;;;;;;;;;6.40;99.90;;;;;;5063404;28;19917;-70
2022/04/30 02:07:28;;;;;;;;;;;6.20;99.90;;;;;;5073214;28;20215;-69
2022/04/30 02:09:54;;;;;;;;;;;6.00;99.90;;;;;;5059867;28;19912;-70
2022/04/30 02:12:20;;;;;;;;;;;5.90;99.90;;;;;;5074936;28;19926;-70
2022/04/30 02:14:48;;;;;;;;;;;5.80;99.90;;;;;;5074598;28;19913;-69
2022/04/30 02:17:15;;;;;;;;;;;5.70;99.90;;;;;;5062783;28;20604;-70
2022/04/30 02:22:25;;;;;;;;;;;5.50;99.90;;;;;;5075697;28;19919;-69
2022/04/30 02:24:51;;;;;;;;;;;5.40;99.90;;;;;;5073717;28;19912;-69
2022/04/30 02:27:17;;;;;;;;;;;5.30;99.90;;;;;;5071924;28;19912;-70
2022/04/30 02:29:44;;;;;;;;;;;5.20;99.90;;;;;;5066870;28;19916;-70
2022/04/30 02:32:10;;;;;;;;;;;5.10;99.90;;;;;;5068548;28;19917;-70
2022/04/30 02:34:35;;;;;;;;;;;5.10;99.90;;;;;;5075163;28;19919;-69
2022/04/30 02:37:04;;;;;;;;;;;5.10;99.90;;;;;;5061097;28;19912;-70
2022/04/30 02:39:32;;;;;;;;;;;5.10;99.90;;;;;;5055574;28;19931;-70
2022/04/30 02:41:58;;;;;;;;;;;5.00;99.90;;;;;;5074858;28;19920;-70
2022/04/30 02:44:26;;;;;;;;;;;5.00;99.90;;;;;;5075532;28;20448;-69
2022/04/30 02:46:55;;;;;;;;;;;5.00;99.90;;;;;;5073173;28;20011;-70
2022/04/30 02:49:21;;;;;;;;;;;5.00;99.90;;;;;;5075587;28;19908;-70
2022/04/30 02:51:47;;;;;;;;;;;5.10;99.90;;;;;;5073562;28;19912;-70
2022/04/30 02:54:13;;;;;;;;;;;5.10;99.90;;;;;;5073805;28;20002;-70
2022/04/30 02:56:39;;;;;;;;;;;5.20;99.90;;;;;;5071782;28;19912;-70
2022/04/30 03:01:48;;;;;;;;;;;5.40;99.90;;;;;;5072077;28;20364;-70
2022/04/30 03:04:14;;;;;;;;;;;5.60;99.90;;;;;;5074851;28;19946;-70
2022/04/30 03:06:39;;;;;;;;;;;5.70;99.90;;;;;;5071913;28;19920;-70
2022/04/30 03:09:05;;;;;;;;;;;5.80;99.90;;;;;;5069246;28;19917;-70
2022/04/30 03:11:31;;;;;;;;;;;5.90;99.90;;;;;;5072048;28;19919;-70
2022/04/30 03:13:57;;;;;;;;;;;6.10;99.90;;;;;;5071471;28;20263;-71
2022/04/30 03:21:53;;;;;;;;;;;6.90;99.90;;;;;;5056845;28;19938;-72
2022/04/30 03:24:18;;;;;;;;;;;7.00;99.90;;;;;;5053956;28;19923;-71
2022/04/30 03:26:44;;;;;;;;;;;7.10;99.90;;;;;;5054136;28;19912;-71
2022/04/30 03:29:10;;;;;;;;;;;7.10;99.90;;;;;;5073320;28;19909;-72
2022/04/30 03:31:39;;;;;;;;;;;7.20;99.90;;;;;;5074542;28;19918;-72
2022/04/30 03:34:15;;;;;;;;;;;7.20;99.90;;;;;;5069481;28;20307;-72
2022/04/30 03:36:41;;;;;;;;;;;7.20;99.90;;;;;;5059189;28;19913;-70
2022/04/30 03:39:07;;;;;;;;;;;7.30;99.90;;;;;;5058664;28;19916;-70
2022/04/30 03:41:32;;;;;;;;;;;7.30;99.90;;;;;;5058830;28;19908;-71
2022/04/30 03:43:58;;;;;;;;;;;7.30;99.90;;;;;;5069172;28;20273;-71
2022/04/30 03:46:24;;;;;;;;;;;7.40;99.90;;;;;;5078788;28;19932;-73
2022/04/30 03:48:53;;;;;;;;;;;7.40;99.90;;;;;;5077587;28;20319;-71
2022/04/30 03:51:22;;;;;;;;;;;7.40;99.90;;;;;;5078363;28;20407;-73
2022/04/30 03:53:48;;;;;;;;;;;7.40;99.90;;;;;;5075080;28;19926;-72
2022/04/30 03:56:16;;;;;;;;;;;7.40;99.90;;;;;;5070586;28;20015;-71
2022/04/30 03:58:42;;;;;;;;;;;7.40;99.90;;;;;;5071844;28;19962;-72
2022/04/30 04:01:07;;;;;;;;;;;7.40;99.90;;;;;;5071510;28;19916;-72
2022/04/30 04:03:33;;;;;;;;;;;7.40;99.90;;;;;;5073004;28;20300;-71
2022/04/30 04:05:59;;;;;;;;;;;7.40;99.90;;;;;;5072152;28;20319;-71
2022/04/30 04:08:25;;;;;;;;;;;7.40;99.90;;;;;;5073958;28;20003;-72
2022/04/30 04:10:50;;;;;;;;;;;7.40;99.90;;;;;;5072833;28;19921;-72
2022/04/30 04:18:44;;;;;;;;;;;7.50;99.90;;;;;;5066758;28;20034;-71
2022/04/30 04:21:11;;;;;;;;;;;7.50;99.90;;;;;;5069585;28;19983;-72
2022/04/30 04:26:25;;;;;;;;;;;7.50;99.90;;;;;;5042063;28;19913;-71
2022/04/30 04:28:50;;;;;;;;;;;7.50;99.90;;;;;;5070042;28;19928;-72
2022/04/30 04:31:22;;;;;;;;;;;7.50;99.90;;;;;;5068223;28;19912;-72
2022/04/30 04:33:47;;;;;;;;;;;7.60;99.90;;;;;;5069787;28;19999;-72
2022/04/30 04:36:13;;;;;;;;;;;7.60;99.90;;;;;;5068059;28;19996;-71
2022/04/30 04:38:38;;;;;;;;;;;7.60;99.90;;;;;;5066545;28;19916;-71
2022/04/30 04:41:04;;;;;;;;;;;7.60;99.90;;;;;;5067573;28;20032;-72
2022/04/30 04:43:29;;;;;;;;;;;7.70;99.90;;;;;;5072570;28;20210;-71
2022/04/30 04:45:55;;;;;;;;;;;7.60;99.90;;;;;;5075467;28;19965;-71
2022/04/30 04:48:21;;;;;;;;;;;7.60;99.90;;;;;;5075981;28;20315;-71
2022/04/30 04:50:46;;;;;;;;;;;7.60;99.90;;;;;;5076116;28;19912;-72
2022/04/30 04:53:12;;;;;;;;;;;7.60;99.90;;;;;;5074077;28;19938;-72
2022/04/30 04:55:38;;;;;;;;;;;7.60;99.90;;;;;;5072516;28;19927;-72
2022/04/30 04:58:03;;;;;;;;;;;7.60;99.90;;;;;;5074715;28;19977;-72
2022/04/30 05:00:29;;;;;;;;;;;7.60;99.90;;;;;;5074682;28;19917;-73
2022/04/30 05:02:55;;;;;;;;;;;7.70;99.90;;;;;;5075981;28;19987;-72
2022/04/30 05:05:21;;;;;;;;;;;7.70;99.90;;;;;;5071258;28;19923;-72
2022/04/30 05:07:46;;;;;;;;;;;7.70;99.90;;;;;;5075968;28;20015;-70
2022/04/30 05:10:12;;;;;;;;;;;7.70;99.90;;;;;;5074981;28;19912;-72
2022/04/30 05:12:37;;;;;;;;;;;7.70;99.90;;;;;;5075575;28;20311;-72
2022/04/30 05:15:03;;;;;;;;;;;7.70;99.90;;;;;;5074059;28;20369;-71
2022/04/30 05:17:29;;;;;;;;;;;7.80;99.90;;;;;;5070732;28;19943;-71
2022/04/30 05:19:54;;;;;;;;;;;7.80;99.90;;;;;;5073360;28;19920;-72
2022/04/30 05:22:20;;;;;;;;;;;7.80;99.90;;;;;;5065252;28;19920;-71
2022/04/30 05:24:45;;;;;;;;;;;7.80;99.90;;;;;;5074716;28;19987;-71
2022/04/30 05:27:11;;;;;;;;;;;7.80;99.90;;;;;;5070764;28;19923;-71
2022/04/30 05:29:36;;;;;;;;;;;7.80;99.90;;;;;;5075225;28;19963;-71
2022/04/30 05:32:02;;;;;;;;;;;7.80;99.90;;;;;;5074847;28;19913;-72
2022/04/30 05:34:28;;;;;;;;;;;7.80;99.90;;;;;;5073293;28;19916;-71
2022/04/30 05:36:53;;;;;;;;;;;7.90;99.90;;;;;;5070649;28;20404;-72
2022/04/30 05:39:19;;;;;;;;;;;7.90;99.90;;;;;;5072864;28;19916;-72
2022/04/30 05:41:46;;;;;;;;;;;7.90;99.90;;;;;;5071768;28;19916;-71
2022/04/30 05:44:12;;;;;;;;;;;8.00;99.90;;;;;;5073648;28;19995;-72
2022/04/30 05:46:38;;;;;;;;;;;8.00;99.90;;;;;;5074445;28;20426;-73
2022/04/30 05:49:03;;;;;;;;;;;8.10;99.90;;;;;;5072223;28;19912;-71
2022/04/30 05:51:29;;;;;;;;;;;8.10;99.90;;;;;;5074244;28;19917;-71
2022/04/30 05:53:55;;;;;;;;;;;8.10;99.90;;;;;;5078442;28;19916;-70
2022/04/30 05:56:20;;;;;;;;;;;8.10;99.90;;;;;;5074274;28;19940;-71
2022/04/30 05:58:46;;;;;;;;;;;8.10;99.90;;;;;;5074353;28;19927;-73
2022/04/30 06:01:12;;;;;;;;;;;8.20;99.90;;;;;;5074182;28;19919;-70
2022/04/30 06:03:39;;;;;;;;;;;8.20;99.90;;;;;;5073223;28;20223;-71
2022/04/30 06:06:05;;;;;;;;;;;8.20;99.90;;;;;;5070503;28;19962;-73
2022/04/30 06:08:31;;;;;;;;;;;8.20;99.90;;;;;;5072753;28;20672;-71
2022/04/30 06:10:56;;;;;;;;;;;8.10;99.90;;;;;;5074357;28;19963;-72
2022/04/30 06:13:22;;;;;;;;;;;8.10;99.90;;;;;;5070530;28;19950;-70
2022/04/30 06:15:48;;;;;;;;;;;8.10;99.90;;;;;;5072435;28;20317;-70
2022/04/30 06:18:15;;;;;;;;;;;8.10;99.90;;;;;;5071727;28;20597;-72
2022/04/30 06:20:41;;;;;;;;;;;8.10;99.90;;;;;;5068166;28;19924;-71
2022/04/30 06:23:06;;;;;;;;;;;8.20;99.90;;;;;;5062867;28;20334;-71
2022/04/30 06:25:32;;;;;;;;;;;8.20;99.90;;;;;;5072397;28;19913;-71
2022/04/30 06:27:58;;;;;;;;;;;8.20;99.90;;;;;;5065763;28;19920;-71
2022/04/30 06:30:24;;;;;;;;;;;8.30;99.90;;;;;;5067331;28;19928;-71
2022/04/30 06:32:49;;;;;;;;;;;8.30;99.90;;;;;;5073006;28;19967;-72
2022/04/30 06:35:15;;;;;;;;;;;8.40;99.90;;;;;;5071980;28;19949;-72
2022/04/30 06:37:42;;;;;;;;;;;8.60;99.90;;;;;;5073101;28;20269;-71
2022/04/30 06:40:08;;;;;;;;;;;8.70;99.90;;;;;;5072112;28;19916;-71
2022/04/30 06:42:44;;;;;;;;;;;8.80;99.90;;;;;;5071143;28;19970;-72
2022/04/30 06:45:10;;;;;;;;;;;9.00;99.90;;;;;;5071835;28;19925;-71
2022/04/30 06:47:36;;;;;;;;;;;9.00;99.90;;;;;;5070076;28;20015;-71
2022/04/30 06:50:03;;;;;;;;;;;9.20;99.90;;;;;;5071945;28;19916;-71
2022/04/30 06:52:28;;;;;;;;;;;9.30;99.90;;;;;;5066341;28;19913;-72
2022/04/30 06:57:38;;;;;;;;;;;9.30;99.90;;;;;;5073657;28;19961;-72
2022/04/30 07:01:25;;;;;;;;;;;9.20;99.90;;;;;;5071143;28;19916;-73
2022/04/30 07:02:55;;;;;;;;;;;9.20;99.90;;;;;;5072039;28;19917;-73
2022/04/30 07:05:21;;;;;;;;;;;9.50;99.90;;;;;;5072987;28;19935;-72
2022/04/30 07:07:46;;;;;;;;;;;9.90;99.90;;;;;;5076697;28;19916;-72
2022/04/30 07:10:12;;;;;;;;;;;9.90;99.90;;;;;;5076652;28;19918;-72
2022/04/30 07:12:37;;;;;;;;;;;9.80;99.90;;;;;;5076308;28;19947;-71
2022/04/30 07:15:03;;;;;;;;;;;9.80;99.90;;;;;;5076778;28;19963;-72
2022/04/30 07:17:28;;;;;;;;;;;9.80;99.90;;;;;;5076462;28;19985;-71
2022/04/30 07:19:54;;;;;;;;;;;9.90;99.90;;;;;;5076215;28;19917;-72
2022/04/30 07:22:19;;;;;;;;;;;9.90;99.90;;;;;;5072551;28;19920;-72
2022/04/30 07:24:45;;;;;;;;;;;10.00;99.90;;;;;;5073477;28;21566;-72
2022/04/30 07:27:11;;;;;;;;;;;10.00;99.90;;;;;;5067113;28;20010;-72
2022/04/30 07:29:38;;;;;;;;;;;10.00;99.90;;;;;;5077281;28;19924;-72
2022/04/30 07:32:07;;;;;;;;;;;10.30;99.90;;;;;;5076629;28;19912;-72
2022/04/30 07:34:33;;;;;;;;;;;10.70;99.90;;;;;;5074920;28;19916;-72
2022/04/30 07:36:59;;;;;;;;;;;10.90;99.90;;;;;;5067686;28;20766;-72
2022/04/30 07:39:24;;;;;;;;;;;11.10;99.90;;;;;;5076950;28;19912;-72
2022/04/30 07:41:53;;;;;;;;;;;11.20;99.90;;;;;;5073237;28;19939;-72
2022/04/30 07:44:18;;;;;;;;;;;11.20;99.90;;;;;;5073675;28;19978;-72
2022/04/30 07:46:44;;;;;;;;;;;11.20;99.90;;;;;;5075491;28;19948;-71
2022/04/30 07:49:09;;;;;;;;;;;11.60;99.90;;;;;;5072811;28;19917;-71
2022/04/30 07:51:42;;;;;;;;;;;11.50;99.90;;;;;;5071314;28;20057;-71
2022/04/30 07:54:08;;;;;;;;;;;11.50;99.90;;;;;;5076205;28;19920;-71
2022/04/30 07:56:34;;;;;;;;;;;11.50;99.90;;;;;;5076198;28;19916;-71
2022/04/30 07:58:59;;;;;;;;;;;11.40;99.90;;;;;;5076586;28;19916;-72
2022/04/30 08:01:25;;;;;;;;;;;11.70;99.90;;;;;;5075243;28;19938;-72
2022/04/30 08:03:50;;;;;;;;;;;11.80;99.90;;;;;;5074500;28;19923;-72
2022/04/30 08:06:16;;;;;;;;;;;12.30;99.90;;;;;;5074782;28;19912;-72
2022/04/30 08:08:42;;;;;;;;;;;12.20;99.90;;;;;;5076220;28;19960;-72
2022/04/30 08:11:07;;;;;;;;;;;12.40;99.90;;;;;;5074608;28;20292;-70
2022/04/30 08:13:33;;;;;;;;;;;12.30;99.90;;;;;;5075530;28;19978;-72
2022/04/30 08:16:02;;;;;;;;;;;12.30;99.90;;;;;;5072343;28;21478;-72
2022/04/30 08:18:28;;;;;;;;;;;12.30;99.90;;;;;;5075262;28;19920;-72
2022/04/30 08:20:53;;;;;;;;;;;12.60;99.90;;;;;;5073431;28;19923;-72
2022/04/30 08:23:19;;;;;;;;;;;12.90;99.90;;;;;;5070558;28;20258;-73
2022/04/30 08:25:44;;;;;;;;;;;12.90;99.90;;;;;;5076271;28;19942;-72
2022/04/30 08:28:10;;;;;;;;;;;13.10;99.90;;;;;;5072256;28;19923;-72
2022/04/30 08:30:35;;;;;;;;;;;13.00;99.90;;;;;;5071397;28;19913;-72
2022/04/30 08:33:01;;;;;;;;;;;12.90;99.90;;;;;;5074605;28;19916;-71
2022/04/30 08:35:27;;;;;;;;;;;13.00;99.90;;;;;;5075791;28;19913;-72
2022/04/30 08:37:53;;;;;;;;;;;12.90;99.90;;;;;;5073282;28;19919;-72
2022/04/30 08:40:18;;;;;;;;;;;13.00;99.90;;;;;;5074570;28;19944;-72
2022/04/30 08:42:44;;;;;;;;;;;13.00;99.90;;;;;;5073775;28;19916;-72
2022/04/30 08:45:10;;;;;;;;;;;13.00;99.90;;;;;;5073304;28;20306;-72
2022/04/30 08:47:42;;;;;;;;;;;12.50;99.90;;;;;;5075374;28;20350;-72
2022/04/30 08:50:11;;;;;;;;;;;11.60;99.90;;;;;;5063588;28;19956;-72
2022/04/30 08:52:37;;;;;;;;;;;11.90;99.90;;;;;;5074725;28;19913;-72
2022/04/30 08:55:03;;;;;;;;;;;12.30;99.90;;;;;;5073382;28;19923;-72
2022/04/30 08:57:29;;;;;;;;;;;12.20;99.90;;;;;;5074570;28;19960;-72
2022/04/30 08:59:56;;;;;;;;;;;12.20;99.90;;;;;;5073640;28;19966;-72
2022/04/30 09:02:21;;;;;;;;;;;12.30;99.90;;;;;;5072448;28;20365;-73
2022/04/30 09:04:48;;;;;;;;;;;12.30;99.90;;;;;;5073384;28;19916;-72
2022/04/30 09:07:18;;;;;;;;;;;12.60;99.90;;;;;;5073474;28;19947;-71
2022/04/30 09:09:55;;;;;;;;;;;12.30;99.90;;;;;;5072064;28;19921;-72
2022/04/30 09:12:23;;;;;;;;;;;12.70;99.90;;;;;;5072061;28;19973;-72
2022/04/30 09:14:49;;;;;;;;;;;12.40;99.90;;;;;;5074149;28;19969;-71
2022/04/30 09:17:15;;;;;;;;;;;12.40;99.90;;;;;;5074672;28;19924;-72
2022/04/30 09:19:49;;;;;;;;;;;11.90;99.90;;;;;;5074630;28;20057;-73
2022/04/30 09:22:15;;;;;;;;;;;11.60;99.90;;;;;;5070389;28;20305;-72
2022/04/30 09:24:44;;;;;;;;;;;11.60;99.90;;;;;;5070889;28;19926;-72
2022/04/30 09:27:12;;;;;;;;;;;11.60;99.90;;;;;;5073886;28;19923;-72
2022/04/30 09:29:38;;;;;;;;;;;11.40;99.90;;;;;;5075092;28;19916;-72
2022/04/30 09:32:04;;;;;;;;;;;11.60;99.90;;;;;;5074232;28;19924;-71
2022/04/30 09:40:16;;;;;;;;;;;11.50;99.90;;;;;;5073543;28;19924;-72
2022/04/30 09:42:42;;;;;;;;;;;11.60;99.90;;;;;;5071204;28;19912;-72
2022/04/30 09:45:09;;;;;;;;;;;11.60;99.90;;;;;;5073027;28;19977;-72
2022/04/30 09:47:35;;;;;;;;;;;11.60;99.90;;;;;;5071886;28;19923;-71
2022/04/30 09:55:33;;;;;;;;;;;11.70;99.90;;;;;;5072296;28;19939;-72
2022/04/30 09:58:03;;;;;;;;;;;11.70;99.90;;;;;;5062366;28;19920;-72
2022/04/30 10:00:31;;;;;;;;;;;11.70;99.90;;;;;;5070609;28;19928;-71
2022/04/30 10:02:59;;;;;;;;;;;11.60;99.90;;;;;;5072637;28;19956;-71
2022/04/30 10:05:24;;;;;;;;;;;11.60;99.90;;;;;;5070893;28;19921;-72
2022/04/30 10:07:50;;;;;;;;;;;11.50;99.90;;;;;;5072107;28;20380;-72
2022/04/30 10:10:22;;;;;;;;;;;11.60;99.90;;;;;;5072945;28;19967;-72
2022/04/30 10:13:03;;;;;;;;;;;11.70;99.90;;;;;;5073530;28;19924;-71
2022/04/30 10:15:31;;;;;;;;;;;11.70;99.90;;;;;;5069924;28;19920;-72
2022/04/30 10:17:57;;;;;;;;;;;11.30;99.90;;;;;;5072634;28;19919;-71
2022/04/30 10:20:34;;;;;;;;;;;11.20;99.90;;;;;;5072018;28;19919;-72
2022/04/30 10:23:00;;;;;;;;;;;11.30;99.90;;;;;;5073366;28;19920;-72
2022/04/30 10:25:32;;;;;;;;;;;11.40;99.90;;;;;;5073603;28;19938;-72
2022/04/30 10:27:57;;;;;;;;;;;11.30;99.90;;;;;;5066604;28;20208;-72
2022/04/30 10:30:24;;;;;;;;;;;11.10;99.90;;;;;;5064764;28;19916;-72
2022/04/30 10:33:03;;;;;;;;;;;11.20;99.90;;;;;;5060505;28;19924;-71
2022/04/30 10:35:47;;;;;;;;;;;11.00;99.90;;;;;;5065558;28;19920;-72
2022/04/30 10:38:15;;;;;;;;;;;10.80;99.90;;;;;;5069332;28;20031;-72
2022/04/30 10:40:50;;;;;;;;;;;10.80;99.90;;;;;;5068642;28;19916;-71
2022/04/30 10:43:26;;;;;;;;;;;10.80;99.90;;;;;;5070907;28;19935;-73
2022/04/30 10:45:53;;;;;;;;;;;10.90;99.90;;;;;;5067716;28;19973;-72
2022/04/30 10:48:19;;;;;;;;;;;10.90;99.90;;;;;;5070758;28;20223;-72
2022/04/30 10:50:51;;;;;;;;;;;10.80;99.90;;;;;;5068912;28;19916;-72
2022/04/30 10:53:19;;;;;;;;;;;10.80;99.90;;;;;;5067424;28;19917;-72
2022/04/30 10:55:45;;;;;;;;;;;10.90;99.90;;;;;;5051579;28;19932;-70
2022/04/30 10:58:10;;;;;;;;;;;10.90;99.90;;;;;;5070367;28;19924;-73
2022/04/30 11:00:36;;;;;;;;;;;10.90;99.90;;;;;;5067730;28;19916;-71
2022/04/30 11:03:11;;;;;;;;;;;10.90;99.90;;;;;;5060581;28;20291;-71
2022/04/30 11:05:37;;;;;;;;;;;10.70;99.90;;;;;;5069383;28;19920;-71
2022/04/30 11:08:05;;;;;;;;;;;10.60;99.90;;;;;;5069250;28;20003;-71
2022/04/30 11:10:31;;;;;;;;;;;10.70;99.90;;;;;;5068183;28;20351;-71
2022/04/30 11:13:03;;;;;;;;;;;10.70;99.90;;;;;;5069283;28;20342;-71
2022/04/30 11:15:28;;;;;;;;;;;10.70;99.90;;;;;;5069828;28;19970;-71
2022/04/30 11:17:57;;;;;;;;;;;10.70;99.90;;;;;;5067456;28;19920;-72
2022/04/30 11:20:23;;;;;;;;;;;10.70;99.90;;;;;;5068413;28;19916;-73
2022/04/30 11:22:55;;;;;;;;;;;10.70;99.90;;;;;;5068178;28;19920;-72
2022/04/30 11:25:20;;;;;;;;;;;10.70;99.90;;;;;;5069100;28;20011;-72
2022/04/30 11:27:46;;;;;;;;;;;10.80;99.90;;;;;;5068503;28;19999;-72
2022/04/30 11:30:12;;;;;;;;;;;10.80;99.90;;;;;;5067817;28;20196;-72
2022/04/30 11:32:37;;;;;;;;;;;10.80;99.90;;;;;;5066553;28;19920;-73
2022/04/30 11:35:04;;;;;;;;;;;10.90;99.90;;;;;;5065986;28;20291;-72
2022/04/30 11:37:42;;;;;;;;;;;11.10;99.90;;;;;;5066726;28;20311;-72
2022/04/30 11:40:09;;;;;;;;;;;11.30;99.90;;;;;;5067234;28;19928;-72
2022/04/30 11:42:34;;;;;;;;;;;11.50;99.90;;;;;;5067783;28;19958;-71
2022/04/30 11:45:00;;;;;;;;;;;11.60;99.90;;;;;;5069684;28;19983;-72
2022/04/30 11:47:25;;;;;;;;;;;11.60;99.90;;;;;;5070404;28;19970;-72
2022/04/30 11:50:02;;;;;;;;;;;11.60;99.90;;;;;;5066185;28;19920;-72
2022/04/30 11:52:28;;;;;;;;;;;11.80;99.90;;;;;;5071409;28;20066;-71
2022/04/30 11:54:54;;;;;;;;;;;12.00;99.90;;;;;;5071342;28;20003;-72
2022/04/30 11:57:21;;;;;;;;;;;12.10;99.90;;;;;;5074516;28;19916;-72
2022/04/30 11:59:47;;;;;;;;;;;12.20;99.90;;;;;;5072520;28;19922;-72
2022/04/30 12:02:14;;;;;;;;;;;11.90;99.90;;;;;;5060057;28;19920;-71
2022/04/30 12:04:41;;;;;;;;;;;11.80;99.90;;;;;;5073060;28;19926;-73
2022/04/30 12:07:07;;;;;;;;;;;12.00;99.90;;;;;;5065129;28;20322;-71
2022/04/30 12:09:33;;;;;;;;;;;12.10;99.90;;;;;;5070476;28;19924;-72
2022/04/30 12:12:00;;;;;;;;;;;12.10;99.90;;;;;;5071980;28;19925;-71
2022/04/30 12:14:26;;;;;;;;;;;12.10;99.90;;;;;;5072442;28;19916;-73
2022/04/30 12:16:52;;;;;;;;;;;12.00;99.90;;;;;;5071378;28;20325;-71
2022/04/30 12:25:09;;;;;;;;;;;11.20;99.90;;;;;;5072826;28;19936;-71
2022/04/30 12:27:36;;;;;;;;;;;11.30;99.90;;;;;;5071646;28;19916;-71
2022/04/30 12:30:12;;;;;;;;;;;11.00;99.90;;;;;;5072330;28;20362;-72
2022/04/30 12:32:59;;;;;;;;;;;10.90;99.90;;;;;;5071445;28;19952;-71
2022/04/30 12:35:31;;;;;;;;;;;10.80;99.90;;;;;;5070496;28;19955;-72
2022/04/30 12:38:03;;;;;;;;;;;10.80;99.90;;;;;;5071237;28;19920;-71
2022/04/30 12:40:28;;;;;;;;;;;10.90;99.90;;;;;;5070346;28;19973;-72
2022/04/30 12:42:54;;;;;;;;;;;10.90;99.90;;;;;;5068536;28;19924;-70
2022/04/30 12:45:19;;;;;;;;;;;10.80;99.90;;;;;;5072609;28;19931;-71
2022/04/30 12:47:45;;;;;;;;;;;10.70;99.90;;;;;;5070381;28;19921;-70
2022/04/30 12:50:10;;;;;;;;;;;10.70;99.90;;;;;;5067204;28;20357;-72
2022/04/30 12:52:36;;;;;;;;;;;10.70;99.90;;;;;;5078402;28;20308;-70
2022/04/30 12:55:03;;;;;;;;;;;10.70;99.90;;;;;;5070024;28;19964;-71
2022/04/30 12:57:29;;;;;;;;;;;10.70;99.90;;;;;;5068286;28;19928;-71
2022/04/30 12:59:54;;;;;;;;;;;10.60;99.90;;;;;;5069885;28;19991;-70
2022/04/30 13:02:23;;;;;;;;;;;10.60;99.90;;;;;;5070054;28;19912;-72
2022/04/30 13:04:51;;;;;;;;;;;10.60;99.90;;;;;;5069046;28;20346;-70
2022/04/30 13:07:20;;;;;;;;;;;10.70;99.90;;;;;;5068389;28;19916;-72
2022/04/30 13:15:14;;;;;;;;;;;11.00;99.90;;;;;;5071179;28;19923;-74
2022/04/30 13:17:40;;;;;;;;;;;11.10;99.90;;;;;;5070507;28;19929;-71
2022/04/30 13:20:06;;;;;;;;;;;11.20;99.90;;;;;;5070532;28;19916;-72
2022/04/30 13:22:32;;;;;;;;;;;11.20;99.90;;;;;;5071499;28;20353;-71
2022/04/30 13:24:58;;;;;;;;;;;11.20;99.90;;;;;;5069721;28;19928;-73
2022/04/30 13:27:23;;;;;;;;;;;11.30;99.90;;;;;;5076616;28;19913;-72
2022/04/30 13:29:49;;;;;;;;;;;11.30;99.90;;;;;;5077476;28;20012;-73
2022/04/30 13:32:15;;;;;;;;;;;11.40;99.90;;;;;;5071665;28;20447;-71
2022/04/30 13:34:40;;;;;;;;;;;11.30;99.90;;;;;;5070544;28;19939;-71
2022/04/30 13:37:06;;;;;;;;;;;11.10;99.90;;;;;;5071264;28;19916;-70
2022/04/30 13:39:31;;;;;;;;;;;10.90;99.90;;;;;;5070765;28;19917;-72
2022/04/30 13:41:57;;;;;;;;;;;10.80;99.90;;;;;;5069863;28;19921;-72
2022/04/30 13:44:23;;;;;;;;;;;10.70;99.90;;;;;;5068261;28;20019;-73
2022/04/30 13:46:48;;;;;;;;;;;10.70;99.90;;;;;;5069562;28;19924;-72
2022/04/30 13:49:15;;;;;;;;;;;10.60;99.90;;;;;;5066834;28;20514;-71
2022/04/30 13:51:41;;;;;;;;;;;10.50;99.90;;;;;;5068298;28;19916;-71
2022/04/30 13:54:06;;;;;;;;;;;10.50;99.90;;;;;;5070849;28;19978;-71
2022/04/30 13:56:36;;;;;;;;;;;10.50;99.90;;;;;;5068843;28;20012;-70
2022/04/30 13:59:04;;;;;;;;;;;10.40;99.90;;;;;;5069530;28;19973;-70
2022/04/30 14:01:30;;;;;;;;;;;10.30;99.90;;;;;;5068600;28;19916;-70
2022/04/30 14:03:56;;;;;;;;;;;10.30;99.90;;;;;;5066836;28;19974;-71
2022/04/30 14:06:21;;;;;;;;;;;10.30;99.90;;;;;;5069163;28;19920;-72
2022/04/30 14:08:47;;;;;;;;;;;10.40;99.90;;;;;;5070311;28;20007;-72
2022/04/30 14:11:13;;;;;;;;;;;10.40;99.90;;;;;;5053586;28;20262;-72
2022/04/30 14:16:23;;;;;;;;;;;10.30;99.90;;;;;;5056846;28;20214;-71
2022/04/30 14:18:49;;;;;;;;;;;10.30;99.90;;;;;;5069710;28;19920;-70
2022/04/30 14:21:15;;;;;;;;;;;10.20;99.90;;;;;;5068748;28;19947;-70
2022/04/30 14:23:41;;;;;;;;;;;10.30;99.90;;;;;;5070399;28;19939;-71
2022/04/30 14:26:07;;;;;;;;;;;10.40;99.90;;;;;;5070737;28;19996;-71
2022/04/30 14:28:32;;;;;;;;;;;10.50;99.90;;;;;;5069561;28;20279;-71
2022/04/30 14:31:01;;;;;;;;;;;10.60;99.90;;;;;;5069782;28;19920;-71
2022/04/30 14:33:27;;;;;;;;;;;10.60;99.90;;;;;;5069534;28;19923;-73
2022/04/30 14:35:53;;;;;;;;;;;10.70;99.90;;;;;;5070297;28;19916;-72
2022/04/30 14:38:18;;;;;;;;;;;10.60;99.90;;;;;;5070532;28;19967;-70
2022/04/30 14:40:45;;;;;;;;;;;10.70;99.90;;;;;;5067391;28;19923;-71
2022/04/30 14:43:11;;;;;;;;;;;10.80;99.90;;;;;;5068827;28;19924;-73
2022/04/30 14:45:40;;;;;;;;;;;10.90;99.90;;;;;;5070176;28;19943;-71
2022/04/30 14:48:06;;;;;;;;;;;11.00;99.90;;;;;;5067987;28;19981;-71
2022/04/30 14:50:32;;;;;;;;;;;11.10;99.90;;;;;;5068985;28;20546;-70
2022/04/30 14:52:58;;;;;;;;;;;11.20;99.90;;;;;;5066058;28;20227;-73
2022/04/30 14:55:25;;;;;;;;;;;11.20;99.90;;;;;;5065878;28;19916;-73
2022/04/30 14:57:51;;;;;;;;;;;11.20;99.90;;;;;;5070303;28;19920;-73
2022/04/30 15:00:17;;;;;;;;;;;11.30;99.90;;;;;;5069269;28;20377;-73
2022/04/30 15:02:43;;;;;;;;;;;11.30;99.90;;;;;;5048151;28;19924;-73
2022/04/30 15:05:09;;;;;;;;;;;11.40;99.90;;;;;;5068327;28;19966;-73
2022/04/30 15:07:34;;;;;;;;;;;11.60;99.90;;;;;;5066429;28;20003;-74
2022/04/30 15:10:00;;;;;;;;;;;11.50;99.90;;;;;;5069184;28;19916;-73
2022/04/30 15:12:25;;;;;;;;;;;11.40;99.90;;;;;;5069658;28;20019;-73